createdAt,value
2017-11-06T00:01:23.560Z,7.20
2017-11-06T00:03:50.313Z,7.20
2017-11-06T00:06:16.503Z,7.20
2017-11-06T00:08:42.706Z,7.40
2017-11-06T00:11:09.412Z,7.60
2017-11-06T00:13:36.058Z,7.20
2017-11-06T00:16:03.875Z,7.20
2017-11-06T00:18:30.183Z,7.20
2017-11-06T00:20:57.891Z,7.20
2017-11-06T00:23:24.479Z,7.10
2017-11-06T00:25:51.236Z,7.20
2017-11-06T00:28:18.411Z,7.10
2017-11-06T00:30:44.606Z,7.10
2017-11-06T00:33:10.987Z,7.20
2017-11-06T00:45:18.450Z,7.10
2017-11-06T00:47:44.634Z,7.10
2017-11-06T00:50:11.063Z,7.10
2017-11-06T00:52:39.050Z,7.00
2017-11-06T00:55:05.749Z,6.90
2017-11-06T00:57:33.174Z,6.90
2017-11-06T00:59:59.462Z,6.80
2017-11-06T01:02:25.652Z,6.70
2017-11-06T01:04:51.895Z,6.70
2017-11-06T01:07:18.123Z,6.70
2017-11-06T01:09:45.472Z,6.70
2017-11-06T01:12:11.682Z,6.80
2017-11-06T01:14:37.952Z,6.80
2017-11-06T01:17:05.305Z,6.90
2017-11-06T01:29:11.540Z,6.70
2017-11-06T01:31:37.983Z,6.70
2017-11-06T01:34:04.184Z,6.60
2017-11-06T01:38:58.285Z,6.80
2017-11-06T01:41:24.915Z,6.80
2017-11-06T01:43:51.111Z,6.90
2017-11-06T01:46:17.358Z,6.90
2017-11-06T01:48:43.716Z,7.00
2017-11-06T01:51:10.333Z,7.00
2017-11-06T01:53:37.293Z,7.00
2017-11-06T01:56:05.367Z,6.90
2017-11-06T01:58:32.449Z,6.90
2017-11-06T02:00:58.852Z,7.00
2017-11-06T02:03:25.059Z,7.10
2017-11-06T02:05:52.866Z,7.10
2017-11-06T02:08:19.442Z,7.10
2017-11-06T02:10:47.505Z,7.10
2017-11-06T02:13:13.696Z,7.10
2017-11-06T02:18:11.011Z,7.10
2017-11-06T02:20:37.283Z,7.10
2017-11-06T02:23:03.567Z,7.10
2017-11-06T02:25:32.296Z,7.00
2017-11-06T02:27:59.135Z,7.00
2017-11-06T02:30:25.553Z,7.20
2017-11-06T02:32:52.175Z,7.10
2017-11-06T02:35:18.395Z,7.00
2017-11-06T02:37:44.596Z,7.10
2017-11-06T02:40:10.850Z,7.10
2017-11-06T02:42:37.048Z,7.20
2017-11-06T02:45:03.223Z,7.10
2017-11-06T02:47:29.866Z,7.20
2017-11-06T02:49:56.260Z,7.10
2017-11-06T02:52:22.521Z,7.20
2017-11-06T02:54:48.721Z,7.20
2017-11-06T02:57:14.875Z,7.10
2017-11-06T02:59:41.067Z,7.20
2017-11-06T03:02:08.013Z,7.20
2017-11-06T03:04:34.222Z,7.20
2017-11-06T03:07:01.032Z,7.10
2017-11-06T03:09:27.242Z,7.10
2017-11-06T03:11:54.582Z,7.10
2017-11-06T03:14:20.798Z,7.10
2017-11-06T03:16:46.943Z,5.00
2017-11-06T03:19:13.164Z,7.20
2017-11-06T03:21:39.434Z,7.40
2017-11-06T03:24:06.673Z,7.30
2017-11-06T03:26:32.934Z,7.40
2017-11-06T03:28:59.104Z,7.30
2017-11-06T03:31:25.290Z,7.50
2017-11-06T03:33:51.502Z,7.00
2017-11-06T03:36:17.734Z,7.20
2017-11-06T03:38:44.789Z,7.10
2017-11-06T03:41:10.986Z,7.00
2017-11-06T03:43:38.159Z,7.10
2017-11-06T03:46:04.359Z,7.10
2017-11-06T03:48:30.622Z,7.10
2017-11-06T03:50:56.815Z,7.10
2017-11-06T03:53:23.080Z,7.10
2017-11-06T03:55:49.261Z,7.10
2017-11-06T03:58:15.464Z,7.20
2017-11-06T04:00:41.680Z,7.10
2017-11-06T04:03:07.876Z,7.10
2017-11-06T04:05:35.567Z,7.20
2017-11-06T04:08:01.724Z,7.20
2017-11-06T04:10:28.142Z,7.10
2017-11-06T04:12:54.348Z,7.20
2017-11-06T04:15:20.573Z,7.20
2017-11-06T04:17:46.769Z,7.20
2017-11-06T04:20:12.973Z,7.20
2017-11-06T04:22:39.894Z,7.20
2017-11-06T04:25:06.116Z,7.20
2017-11-06T04:27:33.063Z,7.20
2017-11-06T04:29:59.316Z,7.20
2017-11-06T04:32:25.554Z,7.20
2017-11-06T04:34:53.223Z,7.20
2017-11-06T04:37:19.818Z,7.10
2017-11-06T04:39:46.083Z,7.10
2017-11-06T04:42:12.701Z,7.10
2017-11-06T04:44:38.926Z,7.10
2017-11-06T04:47:05.102Z,7.10
2017-11-06T04:49:31.292Z,7.20
2017-11-06T04:51:57.840Z,7.00
2017-11-06T04:54:24.052Z,7.00
2017-11-06T04:56:50.204Z,7.00
2017-11-06T04:59:16.419Z,6.90
2017-11-06T05:01:42.609Z,6.90
2017-11-06T05:04:09.609Z,6.80
2017-11-06T05:06:35.798Z,6.80
2017-11-06T05:09:02.075Z,6.70
2017-11-06T05:11:28.291Z,6.70
2017-11-06T05:13:56.054Z,6.60
2017-11-06T05:16:22.235Z,6.60
2017-11-06T05:18:48.436Z,6.60
2017-11-06T05:21:15.458Z,6.50
2017-11-06T05:23:41.730Z,6.50
2017-11-06T05:26:07.957Z,5.80
2017-11-06T05:28:34.789Z,6.60
2017-11-06T05:31:01.602Z,6.50
2017-11-06T05:33:29.371Z,6.40
2017-11-06T05:35:55.636Z,6.40
2017-11-06T05:38:21.870Z,6.40
2017-11-06T05:40:48.472Z,6.50
2017-11-06T05:43:14.633Z,6.50
2017-11-06T05:45:40.812Z,6.50
2017-11-06T05:48:07.036Z,6.50
2017-11-06T05:50:33.835Z,6.50
2017-11-06T05:53:00.050Z,6.40
2017-11-06T05:55:26.265Z,6.40
2017-11-06T05:57:53.350Z,6.50
2017-11-06T06:00:19.517Z,6.50
2017-11-06T06:02:46.451Z,6.50
2017-11-06T06:05:12.610Z,6.60
2017-11-06T06:07:38.831Z,6.60
2017-11-06T06:10:05.376Z,6.60
2017-11-06T06:12:33.931Z,6.50
2017-11-06T06:15:01.271Z,6.50
2017-11-06T06:17:27.850Z,6.50
2017-11-06T06:19:54.382Z,6.40
2017-11-06T06:22:21.321Z,6.40
2017-11-06T06:24:47.601Z,6.40
2017-11-06T06:27:15.450Z,6.40
2017-11-06T06:29:41.815Z,6.40
2017-11-06T06:32:08.127Z,6.40
2017-11-06T06:34:35.295Z,6.40
2017-11-06T06:37:01.558Z,6.30
2017-11-06T06:39:31.228Z,6.70
2017-11-06T06:41:57.413Z,6.80
2017-11-06T06:44:23.679Z,6.50
2017-11-06T06:56:32.320Z,6.50
2017-11-06T06:58:58.967Z,6.60
2017-11-06T07:01:26.524Z,6.50
2017-11-06T07:03:52.795Z,6.50
2017-11-06T07:06:19.787Z,6.50
2017-11-06T07:11:14.687Z,6.50
2017-11-06T07:13:40.917Z,6.50
2017-11-06T07:16:08.258Z,6.50
2017-11-06T07:18:34.775Z,6.50
2017-11-06T07:21:01.037Z,6.50
2017-11-06T07:23:27.263Z,6.60
2017-11-06T07:25:53.475Z,6.60
2017-11-06T07:28:20.357Z,7.20
2017-11-06T07:30:46.548Z,6.70
2017-11-06T07:33:12.856Z,6.80
2017-11-06T07:35:39.082Z,6.90
2017-11-06T07:38:05.270Z,6.90
2017-11-06T07:40:32.212Z,6.90
2017-11-06T07:42:58.504Z,7.00
2017-11-06T07:45:25.506Z,7.00
2017-11-06T07:47:51.696Z,7.00
2017-11-06T07:50:18.821Z,7.10
2017-11-06T07:52:45.024Z,7.20
2017-11-06T07:55:11.205Z,7.20
2017-11-06T07:57:38.285Z,7.20
2017-11-06T08:00:05.115Z,7.60
2017-11-06T08:02:33.318Z,7.40
2017-11-06T08:04:59.491Z,7.50
2017-11-06T08:07:25.700Z,7.60
2017-11-06T08:09:52.634Z,7.60
2017-11-06T08:12:18.798Z,7.70
2017-11-06T08:24:26.541Z,8.40
2017-11-06T08:26:52.782Z,8.70
2017-11-06T08:29:18.971Z,8.90
2017-11-06T08:31:45.192Z,9.20
2017-11-06T08:34:11.410Z,9.40
2017-11-06T08:36:37.604Z,9.60
2017-11-06T08:39:03.843Z,9.90
2017-11-06T08:41:30.028Z,10.20
2017-11-06T08:43:56.248Z,10.40
2017-11-06T08:46:23.518Z,10.70
2017-11-06T08:48:49.752Z,10.70
2017-11-06T08:51:16.786Z,11.00
2017-11-06T08:53:43.012Z,11.30
2017-11-06T08:56:10.509Z,11.60
2017-11-06T08:58:37.013Z,11.90
2017-11-06T09:01:03.266Z,12.10
2017-11-06T09:03:29.455Z,12.30
2017-11-06T09:05:55.696Z,12.50
2017-11-06T09:08:21.910Z,12.60
2017-11-06T09:10:48.152Z,12.70
2017-11-06T09:13:16.011Z,12.90
2017-11-06T09:15:42.209Z,13.00
2017-11-06T09:18:09.133Z,13.30
2017-11-06T09:20:35.868Z,13.50
2017-11-06T09:23:02.087Z,13.60
2017-11-06T09:25:28.287Z,13.80
2017-11-06T09:27:55.326Z,14.10
2017-11-06T09:30:21.580Z,14.40
2017-11-06T09:32:47.863Z,14.50
2017-11-06T09:35:14.109Z,14.50
2017-11-06T09:37:40.374Z,14.50
2017-11-06T09:40:06.649Z,14.50
2017-11-06T09:42:33.630Z,14.70
2017-11-06T09:44:59.862Z,14.70
2017-11-06T09:47:26.082Z,14.80
2017-11-06T09:49:52.246Z,15.00
2017-11-06T09:52:18.437Z,15.50
2017-11-06T09:54:44.618Z,15.70
2017-11-06T09:57:10.794Z,15.60
2017-11-06T09:59:37.755Z,15.70
2017-11-06T10:02:04.892Z,16.00
2017-11-06T10:04:31.123Z,16.20
2017-11-06T10:06:57.314Z,16.60
2017-11-06T10:09:23.547Z,16.70
2017-11-06T10:11:50.491Z,16.90
2017-11-06T10:14:16.663Z,17.30
2017-11-06T10:16:42.902Z,17.40
2017-11-06T10:28:49.576Z,18.10
2017-11-06T10:31:15.845Z,18.00
2017-11-06T10:33:42.041Z,17.70
2017-11-06T10:36:08.268Z,17.50
2017-11-06T10:38:34.497Z,16.90
2017-11-06T10:41:00.890Z,16.50
2017-11-06T10:43:27.115Z,16.30
2017-11-06T10:45:54.312Z,17.00
2017-11-06T10:48:20.604Z,17.40
2017-11-06T10:50:46.834Z,17.80
2017-11-06T10:53:13.032Z,18.30
2017-11-06T10:55:39.308Z,18.80
2017-11-06T11:07:46.375Z,16.80
2017-11-06T11:10:13.091Z,17.20
2017-11-06T11:12:40.126Z,17.40
2017-11-06T11:15:06.355Z,16.80
2017-11-06T11:17:32.874Z,16.00
2017-11-06T11:19:59.134Z,15.50
2017-11-06T11:22:25.402Z,15.80
2017-11-06T11:24:51.651Z,16.50
2017-11-06T11:27:18.897Z,16.60
2017-11-06T11:29:45.133Z,16.60
2017-11-06T11:32:11.401Z,16.00
2017-11-06T11:34:37.705Z,16.00
2017-11-06T11:37:04.695Z,15.30
2017-11-06T11:39:30.902Z,14.60
2017-11-06T11:41:57.134Z,14.20
2017-11-06T11:44:24.302Z,14.30
2017-11-06T11:46:51.271Z,14.00
2017-11-06T11:49:17.858Z,13.60
2017-11-06T11:51:44.093Z,13.30
2017-11-06T11:54:10.362Z,13.30
2017-11-06T11:56:36.534Z,13.30
2017-11-06T11:59:02.736Z,13.10
2017-11-06T12:01:29.535Z,13.00
2017-11-06T12:03:56.090Z,12.90
2017-11-06T12:06:22.306Z,12.70
2017-11-06T12:08:49.263Z,12.70
2017-11-06T12:11:15.442Z,12.60
2017-11-06T12:13:42.440Z,12.60
2017-11-06T12:16:08.576Z,12.60
2017-11-06T12:18:35.504Z,12.50
2017-11-06T12:21:01.705Z,12.50
2017-11-06T12:23:27.924Z,12.40
2017-11-06T12:25:54.397Z,12.40
2017-11-06T12:28:21.094Z,12.40
2017-11-06T12:30:48.211Z,12.40
2017-11-06T12:33:15.407Z,12.30
2017-11-06T12:35:56.590Z,12.20
2017-11-06T12:38:24.463Z,12.10
2017-11-06T12:40:51.422Z,12.20
2017-11-06T12:43:17.622Z,12.20
2017-11-06T12:45:43.852Z,12.20
2017-11-06T12:48:10.064Z,12.20
2017-11-06T12:50:36.279Z,12.40
2017-11-06T12:53:02.449Z,12.50
2017-11-06T12:55:28.662Z,12.50
2017-11-06T12:57:54.885Z,12.70
2017-11-06T13:00:21.882Z,12.70
2017-11-06T13:02:48.109Z,12.60
2017-11-06T13:05:14.706Z,12.40
2017-11-06T13:07:42.172Z,12.40
2017-11-06T13:10:08.389Z,12.40
2017-11-06T13:12:34.628Z,12.40
2017-11-06T13:15:00.933Z,12.40
2017-11-06T13:17:28.179Z,12.40
2017-11-06T13:19:55.307Z,12.30
2017-11-06T13:22:21.507Z,12.30
2017-11-06T13:24:47.966Z,12.20
2017-11-06T13:27:14.199Z,12.10
2017-11-06T13:29:40.373Z,12.10
2017-11-06T13:32:06.610Z,12.30
2017-11-06T13:34:32.872Z,12.50
2017-11-06T13:36:59.057Z,12.60
2017-11-06T13:39:25.962Z,12.50
2017-11-06T13:41:52.156Z,12.40
2017-11-06T13:44:19.110Z,12.60
2017-11-06T13:46:46.396Z,12.90
2017-11-06T13:49:12.600Z,13.20
2017-11-06T13:51:41.253Z,13.50
2017-11-06T13:54:08.221Z,13.70
2017-11-06T13:56:34.398Z,13.50
2017-11-06T13:59:00.654Z,13.40
2017-11-06T14:01:26.829Z,13.40
2017-11-06T14:03:53.116Z,13.60
2017-11-06T14:06:19.326Z,13.80
2017-11-06T14:08:45.871Z,13.90
2017-11-06T14:11:12.113Z,13.80
2017-11-06T14:13:38.350Z,13.70
2017-11-06T14:16:04.894Z,13.80
2017-11-06T14:18:32.608Z,13.80
2017-11-06T14:20:59.416Z,13.60
2017-11-06T14:33:07.503Z,13.00
2017-11-06T14:35:35.402Z,12.80
2017-11-06T14:38:01.991Z,12.80
2017-11-06T14:40:28.171Z,12.80
2017-11-06T14:42:54.388Z,12.90
2017-11-06T14:45:20.631Z,12.80
2017-11-06T14:47:47.538Z,12.70
2017-11-06T14:50:13.791Z,12.80
2017-11-06T14:52:40.756Z,12.60
2017-11-06T14:55:07.230Z,12.10
2017-11-06T14:57:33.396Z,11.70
2017-11-06T14:59:59.611Z,11.40
2017-11-06T15:02:25.837Z,11.20
2017-11-06T15:04:52.829Z,11.00
2017-11-06T15:07:19.834Z,10.90
2017-11-06T15:09:46.794Z,10.80
2017-11-06T15:12:12.997Z,10.80
2017-11-06T15:14:39.638Z,10.70
2017-11-06T15:17:06.697Z,10.70
2017-11-06T15:19:33.334Z,10.70
2017-11-06T15:24:29.001Z,10.60
2017-11-06T15:26:56.647Z,10.50
2017-11-06T15:29:22.877Z,10.50
2017-11-06T15:31:49.700Z,10.40
2017-11-06T15:34:15.973Z,11.40
2017-11-06T15:36:42.242Z,10.30
2017-11-06T15:39:10.166Z,10.30
2017-11-06T15:41:36.330Z,10.40
2017-11-06T15:46:30.811Z,10.40
2017-11-06T15:48:57.696Z,10.50
2017-11-06T15:51:23.940Z,10.20
2017-11-06T15:53:50.370Z,10.30
2017-11-06T15:56:17.591Z,10.20
2017-11-06T15:58:45.165Z,10.30
2017-11-06T16:01:11.347Z,10.30
2017-11-06T16:03:37.572Z,10.20
2017-11-06T16:06:03.811Z,10.30
2017-11-06T16:08:30.779Z,10.10
2017-11-06T16:10:57.752Z,10.10
2017-11-06T16:13:24.064Z,10.00
2017-11-06T16:15:50.256Z,10.00
2017-11-06T16:18:16.514Z,9.90
2017-11-06T16:20:42.798Z,9.80
2017-11-06T16:23:09.389Z,9.70
2017-11-06T16:25:36.933Z,9.70
2017-11-06T16:28:03.207Z,9.50
2017-11-06T16:30:30.157Z,9.60
2017-11-06T16:32:57.555Z,9.50
2017-11-06T16:35:24.628Z,9.50
2017-11-06T16:37:51.678Z,9.50
2017-11-06T16:40:20.016Z,9.50
2017-11-06T16:42:46.621Z,9.50
2017-11-06T16:45:13.010Z,9.50
2017-11-06T16:47:41.322Z,9.40
2017-11-06T16:50:08.595Z,9.40
2017-11-06T16:52:36.011Z,9.40
2017-11-06T16:55:03.404Z,9.30
2017-11-06T16:57:29.611Z,9.30
2017-11-06T16:59:57.815Z,9.40
2017-11-06T17:02:25.779Z,9.60
2017-11-06T17:04:52.069Z,9.60
2017-11-06T17:07:19.035Z,9.50
2017-11-06T17:09:45.262Z,9.40
2017-11-06T17:12:12.738Z,9.30
2017-11-06T17:14:39.694Z,9.20
2017-11-06T17:19:33.978Z,9.00
2017-11-06T17:22:00.623Z,9.10
2017-11-06T17:24:26.882Z,9.10
2017-11-06T17:26:53.100Z,9.10
2017-11-06T17:29:19.274Z,9.10
2017-11-06T17:31:45.703Z,9.10
2017-11-06T17:34:13.183Z,9.10
2017-11-06T17:36:40.620Z,9.00
2017-11-06T17:39:07.953Z,9.00
2017-11-06T17:41:35.493Z,9.00
2017-11-06T17:44:01.774Z,9.00
2017-11-06T17:46:29.885Z,9.00
2017-11-06T17:58:36.197Z,8.70
2017-11-06T18:01:04.908Z,8.80
2017-11-06T18:03:31.164Z,8.80
2017-11-06T18:05:57.447Z,8.70
2017-11-06T18:08:23.704Z,8.80
2017-11-06T18:10:51.460Z,8.70
2017-11-06T18:13:18.765Z,8.60
2017-11-06T18:15:45.102Z,8.70
2017-11-06T18:18:11.396Z,8.60
2017-11-06T18:20:37.875Z,8.60
2017-11-06T18:23:07.944Z,8.60
2017-11-06T18:25:37.336Z,8.70
2017-11-06T18:28:04.805Z,8.70
2017-11-06T18:30:31.509Z,8.70
2017-11-06T18:33:02.258Z,8.70
2017-11-06T18:37:57.167Z,8.80
2017-11-06T18:40:23.564Z,8.80
2017-11-06T18:42:49.756Z,8.70
2017-11-06T18:45:18.279Z,8.70
2017-11-06T18:47:45.998Z,8.70
2017-11-06T18:50:13.811Z,8.70
2017-11-06T18:52:41.452Z,8.70
2017-11-06T18:55:07.870Z,8.60
2017-11-06T18:57:35.761Z,8.60
2017-11-06T19:00:02.162Z,8.70
2017-11-06T19:02:35.928Z,8.70
2017-11-06T19:05:08.932Z,8.60
2017-11-06T19:07:35.866Z,8.50
2017-11-06T19:10:07.415Z,8.50
2017-11-06T19:12:36.865Z,8.50
2017-11-06T19:15:06.146Z,8.30
2017-11-06T19:17:33.090Z,8.40
2017-11-06T19:19:59.423Z,8.40
2017-11-06T19:22:26.417Z,8.40
2017-11-06T19:24:53.691Z,8.30
2017-11-06T19:27:19.999Z,8.30
2017-11-06T19:29:46.431Z,8.20
2017-11-06T19:32:12.667Z,8.00
2017-11-06T19:34:39.251Z,8.10
2017-11-06T19:37:05.551Z,8.10
2017-11-06T19:39:32.294Z,8.10
2017-11-06T19:51:38.506Z,8.00
2017-11-06T19:54:04.714Z,8.00
2017-11-06T19:56:30.969Z,7.90
2017-11-06T19:58:57.140Z,8.00
2017-11-06T20:01:24.514Z,7.90
2017-11-06T20:03:51.126Z,7.90
2017-11-06T20:06:17.703Z,7.90
2017-11-06T20:08:43.946Z,7.90
2017-11-06T20:11:10.518Z,7.90
2017-11-06T20:13:37.468Z,7.90
2017-11-06T20:16:04.452Z,8.00
2017-11-06T20:28:11.120Z,8.00
2017-11-06T20:30:38.309Z,7.90
2017-11-06T20:33:04.605Z,7.90
2017-11-06T20:35:30.899Z,7.90
2017-11-06T20:37:57.117Z,7.90
2017-11-06T20:40:23.376Z,7.90
2017-11-06T20:42:49.624Z,7.90
2017-11-06T20:45:15.947Z,7.90
2017-11-06T20:47:42.226Z,7.90
2017-11-06T20:50:08.433Z,7.80
2017-11-06T20:52:34.756Z,7.70
2017-11-06T20:55:01.704Z,7.60
2017-11-06T20:57:27.995Z,7.60
2017-11-06T20:59:55.070Z,7.60
2017-11-06T21:02:21.322Z,7.60
2017-11-06T21:04:47.578Z,7.70
2017-11-06T21:07:14.523Z,7.60
2017-11-06T21:09:40.793Z,7.60
2017-11-06T21:12:07.098Z,7.60
2017-11-06T21:14:34.325Z,7.60
2017-11-06T21:17:01.095Z,7.60
2017-11-06T21:19:27.324Z,7.60
2017-11-06T21:21:55.072Z,7.50
2017-11-06T21:24:21.360Z,7.40
2017-11-06T21:26:48.621Z,7.30
2017-11-06T21:29:23.149Z,7.20
2017-11-06T21:31:49.354Z,7.10
2017-11-06T21:34:15.591Z,7.00
2017-11-06T21:36:42.783Z,6.90
2017-11-06T21:39:09.428Z,6.80
2017-11-06T21:41:36.156Z,6.80
2017-11-06T21:44:03.581Z,6.70
2017-11-06T21:46:30.076Z,6.70
2017-11-06T21:48:56.495Z,7.50
2017-11-06T21:51:22.998Z,6.60
2017-11-06T21:53:49.323Z,6.50
2017-11-06T21:56:15.583Z,6.50
2017-11-06T21:58:43.980Z,6.50
2017-11-06T22:01:10.225Z,7.10
2017-11-06T22:03:36.771Z,6.40
2017-11-06T22:06:03.343Z,6.50
2017-11-06T22:08:30.548Z,6.40
2017-11-06T22:10:56.712Z,6.40
2017-11-06T22:13:23.657Z,6.40
2017-11-06T22:15:51.235Z,6.40
2017-11-06T22:18:19.351Z,6.40
2017-11-06T22:20:46.107Z,6.40
2017-11-06T22:23:12.504Z,6.30
2017-11-06T22:25:38.721Z,6.40
2017-11-06T22:28:04.988Z,6.30
2017-11-06T22:30:31.327Z,6.30
2017-11-06T22:32:59.127Z,6.20
2017-11-06T22:35:25.505Z,6.20
2017-11-06T22:37:52.610Z,6.20
2017-11-06T22:40:18.816Z,7.20
2017-11-06T22:42:45.041Z,6.20
2017-11-06T22:45:11.874Z,6.20
2017-11-06T22:47:38.930Z,6.20
2017-11-06T22:50:05.164Z,6.10
2017-11-06T22:52:31.787Z,6.10
2017-11-06T22:54:58.559Z,6.10
2017-11-06T22:57:25.313Z,6.10
2017-11-06T22:59:52.296Z,6.10
2017-11-06T23:02:18.730Z,6.10
2017-11-06T23:04:45.696Z,6.00
2017-11-06T23:07:11.854Z,6.00
2017-11-06T23:09:38.053Z,6.00
2017-11-06T23:12:04.322Z,6.00
2017-11-06T23:14:32.027Z,6.10
2017-11-06T23:16:58.285Z,6.20
2017-11-06T23:19:24.532Z,6.20
2017-11-06T23:21:52.380Z,6.20
2017-11-06T23:24:18.592Z,6.10
2017-11-06T23:26:44.824Z,6.00
2017-11-06T23:29:11.402Z,6.00
2017-11-06T23:31:37.824Z,6.00
2017-11-06T23:34:04.758Z,6.00
2017-11-06T23:36:30.951Z,6.30
2017-11-06T23:38:57.321Z,6.10
2017-11-06T23:41:23.840Z,6.20
2017-11-06T23:43:50.074Z,6.20
2017-11-06T23:46:16.255Z,6.30
2017-11-06T23:48:43.107Z,6.40
2017-11-06T23:51:09.341Z,6.30
2017-11-06T23:53:35.528Z,6.40
2017-11-06T23:56:01.759Z,3.00
2017-11-06T23:58:28.489Z,6.40
